Aérodrome :







RETROUVEZ-NOUS SUR...

 
LOGIN :

S'inscrire | Disclaimer

   EN    FR    IT 

 









Légende :    VFR   VFR Marginal   IFR   IFR Intensif   IFR Très Intensif
Visi : 
Plafond : 
>= 8 km
>= 3000ft
5 à 8 km
1000 à 3000 ft
1500m à 5 km
500 à 1000 ft
800 à 1500m
200 à 500 ft
< 800m
< 200 ft
Symboles :   Orages  Brouillard  Fortes neiges  Fortes précipitations  Vent > 20 kt






- Altitude de l'aérodrome : 1005 ft
- Code IATA : YAH


CYAH - La Grande-4

DERNIER METAR :
  • 300310Z AUTO 29008KT 2SM -RA BR BKN005 BKN010 OVC014 03/03 A2971 RMK SLP075

METARs EXPIRÉS :
  • 300259Z AUTO 28009KT 2 1/4SM -RA BR SCT005 BKN009 OVC014 04/03 A2971 RMK SLP074
  • 300255Z AUTO 28006KT 5SM -RA BR SCT005 BKN009 OVC014 04/03 A2971 RMK SLP074
  • 300238Z AUTO 29007KT 6SM -RA BR BKN003 OVC009 04/04 A2971 RMK SLP073
  • 300230Z AUTO 29009KT 5SM -RA BR OVC003 04/04 A2971 RMK SLP073
  • 300225Z AUTO 28007KT 6SM -RA BR OVC003 04/04 A2970 RMK SLP072
  • 300206Z AUTO 27007KT 250V310 4SM -RA BR BKN003 OVC011 04/04 A2969 RMK SLP068
  • 300150Z AUTO 30013G18KT 6SM BR BKN003 OVC006 04/04 A2969 RMK SLP066
  • 300138Z AUTO 27009KT 250V310 1SM BR OVC003 05/04 A2969 RMK SLP066
  • 300116Z AUTO 28008KT 1 1/2SM BR OVC003 05/05 A2969 RMK SLP065
  • 300100Z AUTO 27010G15KT 1SM -RA BR OVC003 05/05 A2968 RMK SLP062
  • 300056Z AUTO 28008G15KT 1SM -RA BR OVC003 05/05 A2967 RMK SLP061

Prévision TAF périmée.
FIR CZUL / Amérique du Nord



MET'MAP, la Météo Aéronautique d'un coup d'oeil ! - Copyright ORBIFLY Décembre 2007 - Disclaimer

ORBIFLY MET'MAP TEAM :

Programmation & Développement : Alexandra Zaïnal
Sur une idée originale de : Baudouin d'Aumeries
Assistance à la programmation : Marc-Olivier Méhu
Soutien technique & logistique : Manuel Goepfert

Contact : metmap@orbifly.com




SOURCES & CREDITS :

   NOAA